sensor_id;sensor_type;location;lat;lon;timestamp;temperature;humidity
65752;DHT22;52486;51.098;13.770;2023-06-22T00:01:58;26.70;77.80
65752;DHT22;52486;51.098;13.770;2023-06-22T00:04:23;26.50;77.60
65752;DHT22;52486;51.098;13.770;2023-06-22T00:06:49;27.20;78.10
65752;DHT22;52486;51.098;13.770;2023-06-22T00:09:15;26.80;77.80
65752;DHT22;52486;51.098;13.770;2023-06-22T00:11:40;27.60;78.50
65752;DHT22;52486;51.098;13.770;2023-06-22T00:14:06;27.30;78.20
65752;DHT22;52486;51.098;13.770;2023-06-22T00:16:33;28.60;79.30
65752;DHT22;52486;51.098;13.770;2023-06-22T00:18:59;28.10;78.70
65752;DHT22;52486;51.098;13.770;2023-06-22T00:21:29;26.40;77.60
65752;DHT22;52486;51.098;13.770;2023-06-22T00:23:55;26.70;77.70
65752;DHT22;52486;51.098;13.770;2023-06-22T00:28:47;26.70;77.70
65752;DHT22;52486;51.098;13.770;2023-06-22T00:31:13;27.10;78.20
65752;DHT22;52486;51.098;13.770;2023-06-22T00:33:39;27.00;78.00
65752;DHT22;52486;51.098;13.770;2023-06-22T00:36:05;27.00;78.00
65752;DHT22;52486;51.098;13.770;2023-06-22T00:38:31;27.60;78.40
65752;DHT22;52486;51.098;13.770;2023-06-22T00:40:57;26.90;78.00
65752;DHT22;52486;51.098;13.770;2023-06-22T00:43:23;27.90;78.60
65752;DHT22;52486;51.098;13.770;2023-06-22T00:50:40;27.30;78.60
65752;DHT22;52486;51.098;13.770;2023-06-22T00:53:08;27.60;68.30
65752;DHT22;52486;51.098;13.770;2023-06-22T00:55:36;27.40;68.20
65752;DHT22;52486;51.098;13.770;2023-06-22T00:58:06;28.10;78.90
65752;DHT22;52486;51.098;13.770;2023-06-22T01:03:02;27.40;66.10
65752;DHT22;52486;51.098;13.770;2023-06-22T01:08:34;28.70;79.20
65752;DHT22;52486;51.098;13.770;2023-06-22T01:11:12;28.90;79.60
65752;DHT22;52486;51.098;13.770;2023-06-22T01:13:56;27.30;65.80
65752;DHT22;52486;51.098;13.770;2023-06-22T01:16:31;27.00;78.10
65752;DHT22;52486;51.098;13.770;2023-06-22T01:19:03;27.60;68.30
65752;DHT22;52486;51.098;13.770;2023-06-22T01:21:31;27.70;78.70
65752;DHT22;52486;51.098;13.770;2023-06-22T01:24:18;26.60;77.80
65752;DHT22;52486;51.098;13.770;2023-06-22T01:29:33;28.80;79.60
65752;DHT22;52486;51.098;13.770;2023-06-22T01:34:25;28.30;78.50
65752;DHT22;52486;51.098;13.770;2023-06-22T01:36:52;27.50;68.80
65752;DHT22;52486;51.098;13.770;2023-06-22T01:39:19;27.30;67.40
65752;DHT22;52486;51.098;13.770;2023-06-22T01:41:47;26.70;78.00
65752;DHT22;52486;51.098;13.770;2023-06-22T01:44:13;26.60;77.80
65752;DHT22;52486;51.098;13.770;2023-06-22T01:46:39;27.40;78.50
65752;DHT22;52486;51.098;13.770;2023-06-22T01:51:32;26.20;77.60
65752;DHT22;52486;51.098;13.770;2023-06-22T01:53:57;28.60;79.40
65752;DHT22;52486;51.098;13.770;2023-06-22T01:56:23;26.90;78.20
65752;DHT22;52486;51.098;13.770;2023-06-22T01:58:57;26.50;78.00
65752;DHT22;52486;51.098;13.770;2023-06-22T02:01:30;26.30;77.80
65752;DHT22;52486;51.098;13.770;2023-06-22T02:04:06;26.80;78.00
65752;DHT22;52486;51.098;13.770;2023-06-22T02:06:37;26.60;78.10
65752;DHT22;52486;51.098;13.770;2023-06-22T02:09:14;28.00;71.40
65752;DHT22;52486;51.098;13.770;2023-06-22T02:11:42;27.30;68.30
65752;DHT22;52486;51.098;13.770;2023-06-22T02:14:09;26.70;78.00
65752;DHT22;52486;51.098;13.770;2023-06-22T02:26:24;27.30;68.20
65752;DHT22;52486;51.098;13.770;2023-06-22T02:28:50;26.30;77.80
65752;DHT22;52486;51.098;13.770;2023-06-22T02:43:31;26.60;77.90
65752;DHT22;52486;51.098;13.770;2023-06-22T02:45:57;26.50;78.00
65752;DHT22;52486;51.098;13.770;2023-06-22T02:48:23;26.80;78.10
65752;DHT22;52486;51.098;13.770;2023-06-22T02:50:48;28.60;79.50
65752;DHT22;52486;51.098;13.770;2023-06-22T02:55:40;26.30;77.80
65752;DHT22;52486;51.098;13.770;2023-06-22T03:02:58;26.70;77.90
65752;DHT22;52486;51.098;13.770;2023-06-22T03:05:24;28.10;79.40
65752;DHT22;52486;51.098;13.770;2023-06-22T03:07:49;28.40;79.50
65752;DHT22;52486;51.098;13.770;2023-06-22T03:10:15;27.60;78.80
65752;DHT22;52486;51.098;13.770;2023-06-22T03:12:42;26.30;77.80
65752;DHT22;52486;51.098;13.770;2023-06-22T03:15:10;26.50;78.10
65752;DHT22;52486;51.098;13.770;2023-06-22T03:17:38;28.60;79.90
65752;DHT22;52486;51.098;13.770;2023-06-22T03:20:07;27.10;69.00
65752;DHT22;52486;51.098;13.770;2023-06-22T03:22:38;28.90;79.90
65752;DHT22;52486;51.098;13.770;2023-06-22T03:25:04;27.20;78.40
65752;DHT22;52486;51.098;13.770;2023-06-22T03:27:30;28.20;79.30
65752;DHT22;52486;51.098;13.770;2023-06-22T03:29:57;27.60;79.00
65752;DHT22;52486;51.098;13.770;2023-06-22T03:32:23;26.40;78.00
65752;DHT22;52486;51.098;13.770;2023-06-22T03:34:48;26.80;78.40
65752;DHT22;52486;51.098;13.770;2023-06-22T03:37:14;26.40;78.10
65752;DHT22;52486;51.098;13.770;2023-06-22T03:39:41;26.90;78.60
65752;DHT22;52486;51.098;13.770;2023-06-22T03:42:07;26.40;78.00
65752;DHT22;52486;51.098;13.770;2023-06-22T03:44:33;26.40;78.10
65752;DHT22;52486;51.098;13.770;2023-06-22T03:46:58;26.40;73.90
65752;DHT22;52486;51.098;13.770;2023-06-22T03:49:24;28.70;79.90
65752;DHT22;52486;51.098;13.770;2023-06-22T03:51:50;26.50;78.20
65752;DHT22;52486;51.098;13.770;2023-06-22T03:54:15;26.60;78.30
65752;DHT22;52486;51.098;13.770;2023-06-22T04:08:51;26.60;78.40
65752;DHT22;52486;51.098;13.770;2023-06-22T04:11:17;26.40;67.70
65752;DHT22;52486;51.098;13.770;2023-06-22T04:16:14;28.10;79.50
65752;DHT22;52486;51.098;13.770;2023-06-22T04:18:40;27.30;78.80
65752;DHT22;52486;51.098;13.770;2023-06-22T04:21:05;27.30;78.70
65752;DHT22;52486;51.098;13.770;2023-06-22T04:25:57;26.30;77.90
65752;DHT22;52486;51.098;13.770;2023-06-22T04:28:23;26.50;78.20
65752;DHT22;52486;51.098;13.770;2023-06-22T04:30:48;27.80;79.10
65752;DHT22;52486;51.098;13.770;2023-06-22T04:33:16;27.20;68.40
65752;DHT22;52486;51.098;13.770;2023-06-22T04:35:45;26.40;78.10
65752;DHT22;52486;51.098;13.770;2023-06-22T04:38:12;26.50;78.50
65752;DHT22;52486;51.098;13.770;2023-06-22T04:40:41;26.90;78.40
65752;DHT22;52486;51.098;13.770;2023-06-22T04:43:07;26.40;78.20
65752;DHT22;52486;51.098;13.770;2023-06-22T04:45:35;26.20;77.90
65752;DHT22;52486;51.098;13.770;2023-06-22T04:48:04;26.40;78.10
65752;DHT22;52486;51.098;13.770;2023-06-22T04:55:22;26.30;77.90
65752;DHT22;52486;51.098;13.770;2023-06-22T04:57:48;26.80;78.50
65752;DHT22;52486;51.098;13.770;2023-06-22T05:00:16;26.40;78.10
65752;DHT22;52486;51.098;13.770;2023-06-22T05:02:44;28.50;79.80
65752;DHT22;52486;51.098;13.770;2023-06-22T05:07:43;27.20;68.60
65752;DHT22;52486;51.098;13.770;2023-06-22T05:10:09;27.80;69.90
65752;DHT22;52486;51.098;13.770;2023-06-22T05:12:36;26.80;78.40
65752;DHT22;52486;51.098;13.770;2023-06-22T05:15:02;26.60;78.20
65752;DHT22;52486;51.098;13.770;2023-06-22T05:17:28;28.50;79.70
65752;DHT22;52486;51.098;13.770;2023-06-22T05:19:54;26.50;78.20
65752;DHT22;52486;51.098;13.770;2023-06-22T05:22:20;26.70;78.40
65752;DHT22;52486;51.098;13.770;2023-06-22T05:24:46;26.50;78.10
65752;DHT22;52486;51.098;13.770;2023-06-22T05:29:39;25.90;78.40
65752;DHT22;52486;51.098;13.770;2023-06-22T05:32:05;28.40;79.60
65752;DHT22;52486;51.098;13.770;2023-06-22T05:36:57;26.70;78.40
65752;DHT22;52486;51.098;13.770;2023-06-22T05:44:18;26.30;77.80
65752;DHT22;52486;51.098;13.770;2023-06-22T05:46:45;28.90;80.10
65752;DHT22;52486;51.098;13.770;2023-06-22T05:49:12;27.40;68.30
65752;DHT22;52486;51.098;13.770;2023-06-22T05:51:38;26.80;78.40
65752;DHT22;52486;51.098;13.770;2023-06-22T05:54:04;26.30;77.90
65752;DHT22;52486;51.098;13.770;2023-06-22T06:03:48;26.20;77.90
65752;DHT22;52486;51.098;13.770;2023-06-22T06:11:07;27.90;79.10
65752;DHT22;52486;51.098;13.770;2023-06-22T06:20:52;27.30;80.20
65752;DHT22;52486;51.098;13.770;2023-06-22T06:23:18;27.40;70.70
65752;DHT22;52486;51.098;13.770;2023-06-22T06:25:44;26.30;80.80
65752;DHT22;52486;51.098;13.770;2023-06-22T06:30:35;26.70;79.80
65752;DHT22;52486;51.098;13.770;2023-06-22T06:33:03;26.60;79.60
65752;DHT22;52486;51.098;13.770;2023-06-22T06:38:00;28.00;80.60
65752;DHT22;52486;51.098;13.770;2023-06-22T06:40:25;26.90;76.50
65752;DHT22;52486;51.098;13.770;2023-06-22T06:45:19;28.50;80.90
65752;DHT22;52486;51.098;13.770;2023-06-22T06:47:46;28.50;81.00
65752;DHT22;52486;51.098;13.770;2023-06-22T06:50:12;26.90;79.80
65752;DHT22;52486;51.098;13.770;2023-06-22T06:52:38;27.60;80.50
65752;DHT22;52486;51.098;13.770;2023-06-22T06:55:04;28.30;81.00
65752;DHT22;52486;51.098;13.770;2023-06-22T06:57:33;26.90;79.80
65752;DHT22;52486;51.098;13.770;2023-06-22T06:59:59;27.70;69.10
65752;DHT22;52486;51.098;13.770;2023-06-22T07:02:26;27.80;70.30
65752;DHT22;52486;51.098;13.770;2023-06-22T07:12:14;27.80;80.50
65752;DHT22;52486;51.098;13.770;2023-06-22T07:17:07;27.30;80.10
65752;DHT22;52486;51.098;13.770;2023-06-22T07:19:33;28.50;81.20
65752;DHT22;52486;51.098;13.770;2023-06-22T07:21:59;26.80;79.90
65752;DHT22;52486;51.098;13.770;2023-06-22T07:26:51;27.50;80.50
65752;DHT22;52486;51.098;13.770;2023-06-22T07:36:36;26.90;79.90
65752;DHT22;52486;51.098;13.770;2023-06-22T07:39:05;27.00;80.10
65752;DHT22;52486;51.098;13.770;2023-06-22T07:41:31;28.00;80.70
65752;DHT22;52486;51.098;13.770;2023-06-22T07:43:57;27.00;79.80
65752;DHT22;52486;51.098;13.770;2023-06-22T07:46:23;27.90;68.90
65752;DHT22;52486;51.098;13.770;2023-06-22T07:51:15;29.00;80.90
65752;DHT22;52486;51.098;13.770;2023-06-22T07:53:42;28.10;70.70
65752;DHT22;52486;51.098;13.770;2023-06-22T07:56:10;27.60;72.80
65752;DHT22;52486;51.098;13.770;2023-06-22T08:05:55;26.70;82.90
65752;DHT22;52486;51.098;13.770;2023-06-22T08:08:21;25.80;77.40
65752;DHT22;52486;51.098;13.770;2023-06-22T08:20:32;25.50;77.70
65752;DHT22;52486;51.098;13.770;2023-06-22T08:22:58;27.10;79.30
65752;DHT22;52486;51.098;13.770;2023-06-22T08:27:56;27.10;75.00
65752;DHT22;52486;51.098;13.770;2023-06-22T08:30:22;26.10;66.90
65752;DHT22;52486;51.098;13.770;2023-06-22T08:32:47;26.80;79.40
65752;DHT22;52486;51.098;13.770;2023-06-22T08:35:14;25.90;68.20
65752;DHT22;52486;51.098;13.770;2023-06-22T08:40:08;26.10;68.00
65752;DHT22;52486;51.098;13.770;2023-06-22T08:42:39;26.00;78.40
65752;DHT22;52486;51.098;13.770;2023-06-22T08:45:06;25.20;68.30
65752;DHT22;52486;51.098;13.770;2023-06-22T08:47:32;26.10;77.90
65752;DHT22;52486;51.098;13.770;2023-06-22T08:49:57;26.40;79.20
65752;DHT22;52486;51.098;13.770;2023-06-22T08:52:23;26.90;79.60
65752;DHT22;52486;51.098;13.770;2023-06-22T09:02:08;24.70;78.60
65752;DHT22;52486;51.098;13.770;2023-06-22T09:04:34;26.80;80.20
65752;DHT22;52486;51.098;13.770;2023-06-22T09:07:03;25.30;79.10
65752;DHT22;52486;51.098;13.770;2023-06-22T09:09:29;26.60;81.40
65752;DHT22;52486;51.098;13.770;2023-06-22T09:14:21;26.10;80.40
65752;DHT22;52486;51.098;13.770;2023-06-22T09:16:48;25.50;68.20
65752;DHT22;52486;51.098;13.770;2023-06-22T09:21:42;25.30;68.10
65752;DHT22;52486;51.098;13.770;2023-06-22T09:24:08;24.60;80.20
65752;DHT22;52486;51.098;13.770;2023-06-22T09:26:33;24.40;79.70
65752;DHT22;52486;51.098;13.770;2023-06-22T09:28:59;26.20;79.40
65752;DHT22;52486;51.098;13.770;2023-06-22T09:31:26;24.50;72.50
65752;DHT22;52486;51.098;13.770;2023-06-22T09:33:55;25.30;69.40
65752;DHT22;52486;51.098;13.770;2023-06-22T09:36:21;25.50;68.70
65752;DHT22;52486;51.098;13.770;2023-06-22T09:38:48;25.90;70.80
65752;DHT22;52486;51.098;13.770;2023-06-22T09:41:14;25.70;79.90
65752;DHT22;52486;51.098;13.770;2023-06-22T09:43:40;25.60;79.50
65752;DHT22;52486;51.098;13.770;2023-06-22T09:48:33;24.60;79.00
65752;DHT22;52486;51.098;13.770;2023-06-22T09:55:51;25.10;80.10
65752;DHT22;52486;51.098;13.770;2023-06-22T09:58:17;26.00;80.40
65752;DHT22;52486;51.098;13.770;2023-06-22T10:00:42;24.70;79.50
65752;DHT22;52486;51.098;13.770;2023-06-22T10:05:35;25.30;67.30
65752;DHT22;52486;51.098;13.770;2023-06-22T10:10:28;24.70;79.60
65752;DHT22;52486;51.098;13.770;2023-06-22T10:13:01;24.70;79.80
65752;DHT22;52486;51.098;13.770;2023-06-22T10:15:29;25.20;80.10
65752;DHT22;52486;51.098;13.770;2023-06-22T10:17:54;24.70;73.80
65752;DHT22;52486;51.098;13.770;2023-06-22T10:25:13;25.30;80.20
65752;DHT22;52486;51.098;13.770;2023-06-22T10:27:39;26.30;80.40
65752;DHT22;52486;51.098;13.770;2023-06-22T10:30:09;25.70;69.70
65752;DHT22;52486;51.098;13.770;2023-06-22T10:32:35;25.50;69.40
65752;DHT22;52486;51.098;13.770;2023-06-22T10:35:02;24.00;78.90
65752;DHT22;52486;51.098;13.770;2023-06-22T10:44:46;24.30;78.60
65752;DHT22;52486;51.098;13.770;2023-06-22T10:47:13;24.90;69.80
65752;DHT22;52486;51.098;13.770;2023-06-22T10:52:06;24.90;78.70
65752;DHT22;52486;51.098;13.770;2023-06-22T10:59:25;26.50;80.50
65752;DHT22;52486;51.098;13.770;2023-06-22T11:01:52;26.20;80.00
65752;DHT22;52486;51.098;13.770;2023-06-22T11:04:19;26.60;81.30
65752;DHT22;52486;51.098;13.770;2023-06-22T11:09:11;24.70;79.10
65752;DHT22;52486;51.098;13.770;2023-06-22T11:14:03;25.60;66.20
65752;DHT22;52486;51.098;13.770;2023-06-22T11:16:29;26.50;78.60
65752;DHT22;52486;51.098;13.770;2023-06-22T11:18:56;25.40;64.80
65752;DHT22;52486;51.098;13.770;2023-06-22T14:29:22;25.90;94.60
65752;DHT22;52486;51.098;13.770;2023-06-22T14:36:41;26.50;85.00
65752;DHT22;52486;51.098;13.770;2023-06-22T14:39:07;26.40;84.70
65752;DHT22;52486;51.098;13.770;2023-06-22T14:41:32;26.90;84.80
65752;DHT22;52486;51.098;13.770;2023-06-22T14:46:24;24.80;84.20
65752;DHT22;52486;51.098;13.770;2023-06-22T14:48:50;25.30;85.10
65752;DHT22;52486;51.098;13.770;2023-06-22T14:51:16;26.00;76.20
65752;DHT22;52486;51.098;13.770;2023-06-22T16:24:03;24.80;84.00
65752;DHT22;52486;51.098;13.770;2023-06-22T16:26:34;24.60;81.50
65752;DHT22;52486;51.098;13.770;2023-06-22T16:29:02;24.70;79.80
65752;DHT22;52486;51.098;13.770;2023-06-22T16:33:54;24.50;74.20
65752;DHT22;52486;51.098;13.770;2023-06-22T16:36:21;24.60;76.40
65752;DHT22;52486;51.098;13.770;2023-06-22T16:41:12;23.90;81.70
65752;DHT22;52486;51.098;13.770;2023-06-22T16:53:25;25.10;84.40
65752;DHT22;52486;51.098;13.770;2023-06-22T16:55:51;24.20;74.70
65752;DHT22;52486;51.098;13.770;2023-06-22T16:58:20;24.20;82.20
65752;DHT22;52486;51.098;13.770;2023-06-22T17:00:47;24.30;79.50
65752;DHT22;52486;51.098;13.770;2023-06-22T17:08:11;24.10;87.70
65752;DHT22;52486;51.098;13.770;2023-06-22T17:10:39;23.00;81.50
65752;DHT22;52486;51.098;13.770;2023-06-22T17:13:05;24.50;72.90
65752;DHT22;52486;51.098;13.770;2023-06-22T17:17:58;24.00;89.30
65752;DHT22;52486;51.098;13.770;2023-06-22T17:20:24;23.20;83.20
65752;DHT22;52486;51.098;13.770;2023-06-22T17:22:50;23.90;74.20
65752;DHT22;52486;51.098;13.770;2023-06-22T17:25:17;23.80;79.80
65752;DHT22;52486;51.098;13.770;2023-06-22T17:27:47;23.50;72.80
65752;DHT22;52486;51.098;13.770;2023-06-22T17:30:14;23.90;73.90
65752;DHT22;52486;51.098;13.770;2023-06-22T17:32:48;23.50;78.10
65752;DHT22;52486;51.098;13.770;2023-06-22T17:35:14;23.50;79.00
65752;DHT22;52486;51.098;13.770;2023-06-22T17:37:56;23.90;81.20
65752;DHT22;52486;51.098;13.770;2023-06-22T18:44:28;22.90;92.30
65752;DHT22;52486;51.098;13.770;2023-06-22T18:46:58;24.50;88.60
65752;DHT22;52486;51.098;13.770;2023-06-22T18:49:25;21.80;86.80
65752;DHT22;52486;51.098;13.770;2023-06-22T18:54:48;22.80;76.80
65752;DHT22;52486;51.098;13.770;2023-06-22T18:57:25;22.00;86.20
65752;DHT22;52486;51.098;13.770;2023-06-22T19:00:01;24.20;88.40
65752;DHT22;52486;51.098;13.770;2023-06-22T19:15:22;22.80;83.40
65752;DHT22;52486;51.098;13.770;2023-06-22T19:18:00;22.80;85.00
65752;DHT22;52486;51.098;13.770;2023-06-22T19:20:31;23.00;85.30
65752;DHT22;52486;51.098;13.770;2023-06-22T19:22:57;22.80;85.90
65752;DHT22;52486;51.098;13.770;2023-06-22T19:30:23;22.60;90.10
65752;DHT22;52486;51.098;13.770;2023-06-22T19:32:49;22.50;87.20
65752;DHT22;52486;51.098;13.770;2023-06-22T19:35:17;22.90;84.70
65752;DHT22;52486;51.098;13.770;2023-06-22T19:37:45;22.70;83.60
65752;DHT22;52486;51.098;13.770;2023-06-22T19:40:13;22.70;83.60
65752;DHT22;52486;51.098;13.770;2023-06-22T19:42:39;22.80;90.10
65752;DHT22;52486;51.098;13.770;2023-06-22T19:45:06;22.60;80.80
65752;DHT22;52486;51.098;13.770;2023-06-22T19:47:32;22.60;82.20
65752;DHT22;52486;51.098;13.770;2023-06-22T19:49:59;22.80;83.80
65752;DHT22;52486;51.098;13.770;2023-06-22T19:52:25;22.60;85.60
65752;DHT22;52486;51.098;13.770;2023-06-22T19:54:50;22.80;86.20
65752;DHT22;52486;51.098;13.770;2023-06-22T19:57:16;22.70;85.80
65752;DHT22;52486;51.098;13.770;2023-06-22T19:59:41;22.70;85.90
65752;DHT22;52486;51.098;13.770;2023-06-22T20:02:09;22.40;85.10
65752;DHT22;52486;51.098;13.770;2023-06-22T20:04:37;22.60;84.70
65752;DHT22;52486;51.098;13.770;2023-06-22T20:07:04;23.80;89.60
65752;DHT22;52486;51.098;13.770;2023-06-22T20:11:56;22.50;70.00
65752;DHT22;52486;51.098;13.770;2023-06-22T20:19:19;22.20;80.60
65752;DHT22;52486;51.098;13.770;2023-06-22T20:21:46;21.40;80.30
65752;DHT22;52486;51.098;13.770;2023-06-22T20:24:12;22.20;69.10
65752;DHT22;52486;51.098;13.770;2023-06-22T20:26:43;21.50;78.90
65752;DHT22;52486;51.098;13.770;2023-06-22T20:29:31;21.60;79.00
65752;DHT22;52486;51.098;13.770;2023-06-22T20:32:10;23.20;71.70
65752;DHT22;52486;51.098;13.770;2023-06-22T20:34:45;22.50;80.00
65752;DHT22;52486;51.098;13.770;2023-06-22T20:44:33;22.10;69.30
65752;DHT22;52486;51.098;13.770;2023-06-22T20:54:18;22.10;68.30
65752;DHT22;52486;51.098;13.770;2023-06-22T21:13:47;20.90;79.60
65752;DHT22;52486;51.098;13.770;2023-06-22T21:21:04;20.90;79.40
65752;DHT22;52486;51.098;13.770;2023-06-22T21:23:30;22.80;80.80
65752;DHT22;52486;51.098;13.770;2023-06-22T21:55:08;21.40;81.70
65752;DHT22;52486;51.098;13.770;2023-06-22T22:02:26;21.50;82.50
65752;DHT22;52486;51.098;13.770;2023-06-22T22:07:18;21.70;72.80
65752;DHT22;52486;51.098;13.770;2023-06-22T22:09:44;21.10;83.60
65752;DHT22;52486;51.098;13.770;2023-06-22T22:12:09;22.50;86.00
65752;DHT22;52486;51.098;13.770;2023-06-22T22:14:35;23.10;88.90
65752;DHT22;52486;51.098;13.770;2023-06-22T22:34:07;21.60;73.50
65752;DHT22;52486;51.098;13.770;2023-06-22T22:41:27;21.80;73.00
65752;DHT22;52486;51.098;13.770;2023-06-22T22:43:57;21.70;76.10
65752;DHT22;52486;51.098;13.770;2023-06-22T22:48:49;21.30;86.30
65752;DHT22;52486;51.098;13.770;2023-06-22T22:51:15;21.10;85.40
65752;DHT22;52486;51.098;13.770;2023-06-22T22:53:40;22.40;85.90
65752;DHT22;52486;51.098;13.770;2023-06-22T23:01:03;21.50;71.70
65752;DHT22;52486;51.098;13.770;2023-06-22T23:10:48;21.00;84.80
65752;DHT22;52486;51.098;13.770;2023-06-22T23:18:06;21.50;84.90
65752;DHT22;52486;51.098;13.770;2023-06-22T23:32:48;20.60;84.10
65752;DHT22;52486;51.098;13.770;2023-06-22T23:40:08;20.40;76.40
65752;DHT22;52486;51.098;13.770;2023-06-22T23:42:47;20.80;85.40
65752;DHT22;52486;51.098;13.770;2023-06-22T23:45:19;21.50;76.70
65752;DHT22;52486;51.098;13.770;2023-06-22T23:47:45;21.30;75.40
65752;DHT22;52486;51.098;13.770;2023-06-22T23:52:38;21.40;72.20
65752;DHT22;52486;51.098;13.770;2023-06-22T23:55:04;20.40;85.10
65752;DHT22;52486;51.098;13.770;2023-06-22T23:59:58;21.30;91.60
